Time;durP1;ratioP1;P1;durP2;ratioP2;P2;SDS_P1;SDS_P2;PMS_P1;PMS_P2;Temp;Humidity;BMP_temperature;BMP_pressure;BME280_temperature;BME280_humidity;BME280_pressure;Samples;Min_cycle;Max_cycle;Signal;HPM_P1;HPM_P2
2023/03/08 00:01:12;;;;;;;;;28.75;23.50;;;;;7.43;69.08;99539.25;5087764;27;45725;-67
2023/03/08 00:03:38;;;;;;;;;28.25;23.75;;;;;7.43;68.92;99540.09;5071572;27;45437;-64
2023/03/08 00:06:05;;;;;;;;;32.00;27.00;;;;;7.41;68.42;99527.97;5089245;27;46623;-65
2023/03/08 00:08:31;;;;;;;;;36.00;26.25;;;;;7.41;68.25;99528.81;5089459;27;45340;-65
2023/03/08 00:10:56;;;;;;;;;25.25;24.00;;;;;7.29;69.03;99518.47;5091991;27;45467;-66
2023/03/08 00:13:22;;;;;;;;;32.25;27.00;;;;;7.27;69.01;99522.81;5095432;27;45424;-65
2023/03/08 00:15:47;;;;;;;;;31.25;25.50;;;;;7.17;69.17;99501.13;5093585;27;46209;-67
2023/03/08 00:18:13;;;;;;;;;31.75;24.75;;;;;7.21;69.13;99509.78;5091221;27;45384;-67
2023/03/08 00:20:38;;;;;;;;;33.50;25.25;;;;;7.15;69.60;99491.59;5084910;27;45429;-66
2023/03/08 00:23:04;;;;;;;;;30.50;24.00;;;;;7.15;69.60;99505.47;5084753;27;45588;-67
2023/03/08 00:25:29;;;;;;;;;24.75;24.00;;;;;7.06;69.87;99487.28;5086640;27;46322;-67
2023/03/08 00:27:55;;;;;;;;;29.00;22.00;;;;;7.13;70.47;99502.00;5089372;27;45541;-68
2023/03/08 00:30:27;;;;;;;;;28.75;25.50;;;;;7.01;70.41;99474.28;5087502;27;45388;-69
2023/03/08 00:32:53;;;;;;;;;26.50;24.50;;;;;7.15;70.75;99489.00;5094472;27;45374;-67
2023/03/08 00:35:21;;;;;;;;;29.00;26.00;;;;;7.12;70.32;99478.56;5089552;27;46110;-67
2023/03/08 00:37:47;;;;;;;;;28.50;27.00;;;;;7.06;71.03;99461.25;5099304;27;45492;-66
2023/03/08 00:40:13;;;;;;;;;32.50;27.75;;;;;7.22;70.64;99485.50;5096512;27;45404;-66
2023/03/08 00:42:38;;;;;;;;;29.75;23.75;;;;;7.00;70.50;99449.13;5097738;27;45354;-66
2023/03/08 00:45:04;;;;;;;;;27.00;25.25;;;;;7.10;71.29;99465.59;5084333;27;45690;-66
2023/03/08 00:47:30;;;;;;;;;36.00;29.75;;;;;6.94;71.21;99450.91;5096534;27;45438;-66
2023/03/08 00:49:55;;;;;;;;;27.50;24.75;;;;;6.99;71.37;99460.41;5100667;27;45389;-67
2023/03/08 00:52:21;;;;;;;;;26.75;23.00;;;;;6.91;72.01;99445.72;5098755;27;45412;-67
2023/03/08 00:54:46;;;;;;;;;27.75;22.25;;;;;6.88;72.11;99432.69;5096015;27;46252;-67
2023/03/08 00:57:15;;;;;;;;;31.25;26.50;;;;;6.93;72.29;99433.56;5098483;27;45603;-68
2023/03/08 00:59:40;;;;;;;;;26.25;23.75;;;;;6.88;72.23;99420.56;5100423;27;45368;-68
2023/03/08 01:02:06;;;;;;;;;27.75;21.25;;;;;6.83;71.81;99404.06;5100225;27;45637;-66
2023/03/08 01:04:32;;;;;;;;;27.75;21.00;;;;;6.84;72.00;99399.75;5100456;27;46364;-66
2023/03/08 01:06:58;;;;;;;;;29.75;27.50;;;;;6.86;72.39;99401.47;5098465;27;45707;-66
2023/03/08 01:09:24;;;;;;;;;26.75;23.25;;;;;6.85;72.75;99396.28;5078118;27;45809;-65
2023/03/08 01:11:50;;;;;;;;;35.25;27.25;;;;;6.84;72.69;99385.00;5113390;27;45694;-66
2023/03/08 01:14:16;;;;;;;;;32.25;28.50;;;;;6.78;73.10;99375.47;5093884;27;46421;-66
2023/03/08 01:16:41;;;;;;;;;27.00;25.50;;;;;6.75;73.34;99359.00;5097367;27;45563;-64
2023/03/08 01:19:09;;;;;;;;;27.75;26.00;;;;;6.84;72.88;99363.31;5084233;27;45412;-66
2023/03/08 01:21:34;;;;;;;;;30.75;29.00;;;;;6.84;73.14;99365.94;5091862;27;45770;-66
2023/03/08 01:24:00;;;;;;;;;33.75;27.50;;;;;6.79;73.19;99359.00;5097339;27;46729;-65
2023/03/08 01:26:26;;;;;;;;;30.75;28.75;;;;;6.79;73.31;99353.78;5098621;27;45530;-66
2023/03/08 01:28:52;;;;;;;;;30.25;27.75;;;;;6.71;73.68;99332.13;5099611;27;45639;-66
2023/03/08 01:31:23;;;;;;;;;29.50;24.25;;;;;6.69;73.89;99322.59;5099475;27;45767;-66
2023/03/08 01:33:50;;;;;;;;;31.50;26.75;;;;;6.71;73.71;99308.72;5099872;27;45530;-65
2023/03/08 01:36:19;;;;;;;;;30.25;22.00;;;;;6.79;73.75;99324.31;5133054;27;46253;-66
2023/03/08 01:38:45;;;;;;;;;3.25;0.00;;;;;6.79;73.74;99313.91;5115543;27;45519;-66
2023/03/08 01:41:21;;;;;;;;;31.75;27.50;;;;;6.73;73.68;99312.16;5098460;27;45622;-65
2023/03/08 01:43:47;;;;;;;;;30.25;26.50;;;;;6.64;74.15;99299.22;5097468;27;48314;-67
2023/03/08 01:46:32;;;;;;;;;27.75;21.00;;;;;6.74;74.20;99302.66;5099160;27;45515;-68
2023/03/08 01:49:27;;;;;;;;;30.75;26.00;;;;;6.74;73.73;99308.72;5099694;27;45368;-65
2023/03/08 01:51:56;;;;;;;;;22.75;22.75;;;;;6.76;74.49;99298.28;5097661;27;45516;-67
2023/03/08 01:54:30;;;;;;;;;34.25;24.75;;;;;6.78;74.74;99292.19;5093815;27;46979;-66
2023/03/08 01:57:06;;;;;;;;;25.25;23.00;;;;;6.80;74.25;99281.78;5094232;27;45472;-68
2023/03/08 01:59:33;;;;;;;;;28.75;25.25;;;;;6.84;74.26;99283.50;5095272;27;46234;-66
2023/03/08 02:02:00;;;;;;;;;29.25;24.75;;;;;6.80;74.23;99255.75;5098212;27;45857;-67
2023/03/08 02:04:26;;;;;;;;;27.50;24.50;;;;;6.84;73.72;99257.47;5096316;27;46218;-68
2023/03/08 02:06:51;;;;;;;;;28.50;25.75;;;;;6.85;74.41;99250.53;5095529;27;45566;-66
2023/03/08 02:09:18;;;;;;;;;29.00;26.75;;;;;6.90;73.99;99253.97;5098282;27;45742;-66
2023/03/08 02:11:44;;;;;;;;;30.25;27.50;;;;;6.90;73.91;99253.97;5095616;27;45399;-65
2023/03/08 02:14:10;;;;;;;;;26.00;22.00;;;;;6.91;74.28;99245.28;5094972;27;45542;-65
2023/03/08 02:16:35;;;;;;;;;30.00;23.75;;;;;6.84;74.41;99228.84;5095348;27;45481;-66
2023/03/08 02:19:08;;;;;;;;;26.25;25.00;;;;;6.87;74.59;99234.03;5087601;27;45343;-64
2023/03/08 02:21:33;;;;;;;;;29.50;24.75;;;;;6.77;74.69;99233.22;5096068;27;45342;-65
2023/03/08 02:24:16;;;;;;;;;27.00;26.50;;;;;6.80;74.82;99224.53;5095354;27;46508;-66
2023/03/08 02:26:42;;;;;;;;;27.50;22.50;;;;;6.72;74.80;99218.53;5110402;27;45537;-66
2023/03/08 02:29:08;;;;;;;;;24.00;23.50;;;;;6.70;75.53;99205.53;5094330;27;45736;-65
2023/03/08 02:31:33;;;;;;;;;27.00;23.50;;;;;6.73;75.31;99207.22;5094064;27;45801;-68
2023/03/08 02:33:59;;;;;;;;;25.00;21.50;;;;;6.73;76.05;99197.69;5080584;27;46396;-67
2023/03/08 02:36:25;;;;;;;;;27.75;21.75;;;;;6.72;75.50;99189.91;5095605;27;45572;-66
2023/03/08 02:38:50;;;;;;;;;36.00;27.75;;;;;6.71;76.28;99169.94;5092903;27;45248;-67
2023/03/08 02:41:16;;;;;;;;;31.00;26.25;;;;;6.70;77.17;99169.09;5095106;27;45452;-68
2023/03/08 02:43:41;;;;;;;;;28.00;26.25;;;;;6.63;76.83;99159.59;5094275;27;46463;-68
2023/03/08 02:46:11;;;;;;;;;31.25;24.50;;;;;6.60;76.52;99151.84;5094347;27;45403;-66
2023/03/08 02:48:36;;;;;;;;;22.25;22.25;;;;;6.53;76.72;99140.59;5080692;27;45532;-66
2023/03/08 02:51:02;;;;;;;;;27.50;22.00;;;;;6.52;77.40;99130.19;5097790;27;45410;-66
2023/03/08 02:53:28;;;;;;;;;29.25;27.00;;;;;6.43;77.35;99114.66;5094332;27;45919;-65
2023/03/08 02:55:53;;;;;;;;;28.00;24.75;;;;;6.61;77.37;99131.88;5096128;27;45424;-67
2023/03/08 02:58:19;;;;;;;;;28.25;25.25;;;;;6.55;77.23;99120.66;5098658;27;45234;-67
2023/03/08 03:00:44;;;;;;;;;22.25;20.50;;;;;6.54;77.73;99116.31;5080519;27;46918;-66
2023/03/08 03:03:10;;;;;;;;;32.00;25.75;;;;;6.57;77.88;99099.81;5094091;27;46494;-66
2023/03/08 03:05:41;;;;;;;;;27.00;22.75;;;;;6.58;77.85;99092.00;5094178;27;45381;-67
2023/03/08 03:08:07;;;;;;;;;30.75;23.75;;;;;6.48;77.78;99056.53;5093984;27;45293;-66
2023/03/08 03:10:34;;;;;;;;;28.75;23.75;;;;;6.46;77.76;99047.88;5110079;27;45507;-66
2023/03/08 03:13:00;;;;;;;;;24.25;23.50;;;;;6.56;78.15;99051.28;5094108;27;45495;-65
2023/03/08 03:15:25;;;;;;;;;33.25;24.75;;;;;6.43;78.21;99013.22;5096350;27;45538;-66
2023/03/08 03:17:51;;;;;;;;;22.25;18.75;;;;;6.53;78.18;99010.53;5094632;27;45551;-67
2023/03/08 03:20:17;;;;;;;;;28.50;22.00;;;;;6.58;77.64;99016.56;5080803;27;45500;-67
2023/03/08 03:22:43;;;;;;;;;26.75;23.00;;;;;6.62;78.46;99016.53;5093785;27;45994;-68
2023/03/08 03:25:09;;;;;;;;;26.75;23.00;;;;;6.55;78.00;99005.34;5085200;27;45545;-66
2023/03/08 03:27:35;;;;;;;;;27.00;23.25;;;;;6.62;78.49;99014.81;5100546;27;45479;-66
2023/03/08 03:30:00;;;;;;;;;27.00;23.50;;;;;6.67;78.10;99005.22;5096358;27;45852;-67
2023/03/08 03:32:26;;;;;;;;;23.50;21.75;;;;;6.62;77.90;98957.59;5083550;27;45487;-66
2023/03/08 03:34:51;;;;;;;;;30.50;26.00;;;;;6.54;78.11;98956.78;5091128;27;45451;-65
2023/03/08 03:37:17;;;;;;;;;25.00;23.75;;;;;6.53;78.81;98939.47;5072408;27;45401;-67
2023/03/08 03:39:43;;;;;;;;;22.75;20.50;;;;;6.65;78.19;98960.13;5090636;27;45536;-67
2023/03/08 03:42:09;;;;;;;;;27.75;24.25;;;;;6.60;78.10;98961.94;5097924;27;45825;-67
2023/03/08 03:44:34;;;;;;;;;27.50;23.50;;;;;6.63;78.52;98950.63;5084975;27;45506;-67
2023/03/08 03:47:00;;;;;;;;;24.50;21.25;;;;;6.54;79.14;98922.97;5095477;27;45338;-67
2023/03/08 03:49:25;;;;;;;;;24.00;21.00;;;;;6.44;78.88;98910.94;5098258;27;45327;-67
2023/03/08 03:51:51;;;;;;;;;22.50;20.25;;;;;6.61;79.30;98926.38;5099904;27;46322;-68
2023/03/08 03:54:16;;;;;;;;;21.50;19.00;;;;;6.61;79.44;98909.00;5101285;27;45634;-67
2023/03/08 03:56:43;;;;;;;;;20.00;19.75;;;;;6.68;78.79;98918.47;5101378;27;45448;-67
2023/03/08 03:59:08;;;;;;;;;24.75;22.25;;;;;6.56;79.18;98884.78;5097879;27;45530;-66
2023/03/08 04:01:34;;;;;;;;;21.25;19.25;;;;;6.66;79.06;98896.81;5096138;27;45426;-66
2023/03/08 04:03:59;;;;;;;;;21.25;19.25;;;;;6.63;78.76;98881.25;5096748;27;45507;-66
2023/03/08 04:06:28;;;;;;;;;21.50;17.50;;;;;6.64;78.72;98889.91;5088938;27;45550;-67
2023/03/08 04:08:59;;;;;;;;;21.00;18.50;;;;;6.54;79.59;98858.78;5095955;27;45460;-67
2023/03/08 04:11:28;;;;;;;;;21.75;18.25;;;;;6.52;79.71;98862.28;5090489;27;46553;-66
2023/03/08 04:13:54;;;;;;;;;14.00;13.00;;;;;6.54;79.94;98866.59;5095173;27;45509;-66
2023/03/08 04:16:24;;;;;;;;;16.75;14.25;;;;;6.43;79.61;98839.00;5099620;27;45547;-66
2023/03/08 04:18:59;;;;;;;;;15.75;10.00;;;;;6.47;79.47;98838.94;5096461;27;45571;-67
2023/03/08 04:21:27;;;;;;;;;18.75;16.50;;;;;6.47;80.11;98836.34;5091972;27;46492;-68
2023/03/08 04:23:57;;;;;;;;;16.25;15.50;;;;;6.52;80.48;98847.53;5078127;27;45336;-67
2023/03/08 04:26:23;;;;;;;;;16.00;14.50;;;;;6.52;80.42;98839.75;5080408;27;45564;-66
2023/03/08 04:28:49;;;;;;;;;19.25;16.50;;;;;6.50;80.38;98831.13;5087401;27;45314;-68
2023/03/08 04:31:27;;;;;;;;;17.00;15.25;;;;;6.57;80.76;98844.88;5084826;27;46031;-69
2023/03/08 04:33:56;;;;;;;;;19.00;15.25;;;;;6.55;80.61;98813.72;5093799;27;45686;-66
2023/03/08 04:36:26;;;;;;;;;16.75;14.50;;;;;6.51;80.10;98787.75;5093916;27;45470;-68
2023/03/08 04:38:52;;;;;;;;;17.50;16.25;;;;;6.53;81.24;98807.66;5083552;27;45587;-67
2023/03/08 04:41:18;;;;;;;;;15.25;14.50;;;;;6.48;80.82;98809.47;5093450;27;45495;-66
2023/03/08 04:43:47;;;;;;;;;19.75;17.00;;;;;6.50;81.51;98815.53;5081979;27;45446;-67
2023/03/08 04:46:13;;;;;;;;;12.00;11.00;;;;;6.50;81.24;98788.63;5093467;27;45474;-67
2023/03/08 04:48:40;;;;;;;;;13.75;10.75;;;;;6.54;81.39;98792.91;5085538;27;45389;-68
2023/03/08 04:51:08;;;;;;;;;12.50;12.00;;;;;6.47;81.38;98794.72;5095762;27;46473;-67
2023/03/08 04:53:35;;;;;;;;;15.50;13.25;;;;;6.52;81.41;98786.88;5086731;27;46148;-66
2023/03/08 04:56:01;;;;;;;;;13.25;12.50;;;;;6.54;81.79;98783.38;5093007;27;45818;-66
2023/03/08 04:58:28;;;;;;;;;14.00;12.00;;;;;6.50;82.29;98771.31;5086320;27;45956;-67
2023/03/08 05:00:54;;;;;;;;;12.75;11.25;;;;;6.56;81.79;98784.22;5087683;27;47816;-68
2023/03/08 05:03:20;;;;;;;;;9.75;9.50;;;;;6.53;82.19;98776.47;5084763;27;45906;-65
2023/03/08 05:05:48;;;;;;;;;14.00;8.75;;;;;6.41;82.15;98754.94;5084063;27;45370;-66
2023/03/08 05:08:14;;;;;;;;;13.75;12.75;;;;;6.69;82.17;98768.44;5114179;27;45773;-69
2023/03/08 05:10:58;;;;;;;;;16.00;10.50;;;;;6.68;81.81;98775.38;5088281;27;46321;-66
2023/03/08 05:13:25;;;;;;;;;11.75;10.00;;;;;6.62;81.83;98772.00;5086386;27;45440;-66
2023/03/08 05:15:51;;;;;;;;;11.50;9.75;;;;;6.70;82.71;98768.44;5094282;27;45378;-66
2023/03/08 05:18:21;;;;;;;;;13.50;11.25;;;;;6.69;82.13;98765.84;5095264;27;45287;-66
2023/03/08 05:21:03;;;;;;;;;11.25;8.75;;;;;6.78;82.30;98770.91;5087501;27;46239;-68
2023/03/08 05:23:32;;;;;;;;;12.25;8.50;;;;;6.64;82.21;98739.03;5096316;27;45445;-66
2023/03/08 05:26:00;;;;;;;;;9.00;9.00;;;;;6.79;82.48;98739.69;5092670;27;45370;-66
2023/03/08 05:28:29;;;;;;;;;12.00;9.75;;;;;6.81;82.87;98742.28;5124034;27;45355;-66
2023/03/08 05:31:07;;;;;;;;;11.00;9.00;;;;;6.78;82.97;98744.88;5092997;27;46427;-66
2023/03/08 05:33:33;;;;;;;;;10.50;8.25;;;;;6.85;82.92;98741.31;5088032;27;45535;-65
2023/03/08 05:35:59;;;;;;;;;7.50;5.75;;;;;6.86;83.52;98732.66;5092563;27;45512;-66
2023/03/08 05:38:25;;;;;;;;;7.25;7.25;;;;;6.84;83.20;98738.75;5090942;27;45448;-68
2023/03/08 05:40:51;;;;;;;;;11.25;9.00;;;;;6.87;83.29;98721.34;5078491;27;46496;-66
2023/03/08 05:43:18;;;;;;;;;5.50;5.50;;;;;6.88;83.56;98722.19;5078604;27;45402;-65
2023/03/08 05:46:09;;;;;;;;;9.50;7.00;;;;;6.93;83.42;98738.63;5074768;27;45614;-66
2023/03/08 05:48:36;;;;;;;;;10.50;7.50;;;;;6.99;84.02;98741.13;5077927;27;45483;-65
2023/03/08 05:51:13;;;;;;;;;9.25;7.25;;;;;6.94;83.78;98719.50;5074096;27;45558;-66
2023/03/08 05:53:39;;;;;;;;;12.25;9.25;;;;;7.01;84.46;98721.97;5076205;27;45475;-66
2023/03/08 05:56:20;;;;;;;;;9.50;8.00;;;;;7.02;84.52;98733.25;5078784;27;45611;-66
2023/03/08 05:58:46;;;;;;;;;9.00;9.00;;;;;7.07;84.37;98734.06;5077569;27;45511;-66
2023/03/08 06:01:21;;;;;;;;;8.25;7.25;;;;;7.10;85.32;98728.78;5074407;27;46515;-67
2023/03/08 06:03:51;;;;;;;;;12.50;10.00;;;;;7.12;84.51;98718.34;5075311;27;45271;-66
2023/03/08 06:06:18;;;;;;;;;8.75;8.75;;;;;7.18;84.17;98718.25;5073308;27;45465;-66
2023/03/08 06:08:44;;;;;;;;;10.25;8.50;;;;;7.08;84.65;98706.28;5073589;27;46004;-66
2023/03/08 06:11:10;;;;;;;;;7.25;6.25;;;;;7.17;84.74;98714.78;5074512;27;45856;-65
2023/03/08 06:13:36;;;;;;;;;10.75;8.75;;;;;7.27;85.15;98712.03;5073725;27;45592;-66
2023/03/08 06:16:03;;;;;;;;;9.25;8.25;;;;;7.24;85.05;98718.16;5074803;27;45586;-66
2023/03/08 06:18:29;;;;;;;;;8.25;7.00;;;;;7.29;84.79;98721.53;5075245;27;45494;-66
2023/03/08 06:20:59;;;;;;;;;7.50;7.50;;;;;7.25;85.16;98704.25;5073404;27;45613;-66
2023/03/08 06:23:27;;;;;;;;;9.25;7.50;;;;;7.40;85.61;98717.03;5076028;27;45691;-66
2023/03/08 06:25:53;;;;;;;;;11.00;9.50;;;;;7.45;85.63;98727.34;5073814;27;45553;-68
2023/03/08 06:28:19;;;;;;;;;7.25;7.25;;;;;7.47;85.82;98738.59;5074470;27;45453;-68
2023/03/08 06:30:48;;;;;;;;;5.75;5.75;;;;;7.56;85.42;98720.19;5073554;27;45572;-67
2023/03/08 06:33:14;;;;;;;;;7.75;7.50;;;;;7.47;85.68;98720.34;5074265;27;45311;-66
2023/03/08 06:35:40;;;;;;;;;7.00;7.00;;;;;7.60;85.53;98731.44;5084761;27;45500;-65
2023/03/08 06:38:05;;;;;;;;;7.00;6.00;;;;;7.69;85.89;98728.66;5094358;27;45435;-67
2023/03/08 06:40:31;;;;;;;;;8.00;8.00;;;;;7.72;86.63;98719.91;5096297;27;46600;-67
2023/03/08 06:42:57;;;;;;;;;7.00;7.00;;;;;7.80;86.49;98736.25;5098806;27;45405;-67
2023/03/08 06:45:22;;;;;;;;;11.00;8.00;;;;;7.88;86.02;98746.53;5096091;27;45376;-68
2023/03/08 06:47:48;;;;;;;;;6.75;6.00;;;;;7.90;85.32;98740.44;5094793;27;45726;-67
2023/03/08 06:50:13;;;;;;;;;9.75;9.00;;;;;8.07;85.22;98730.53;5097509;27;46407;-67
2023/03/08 06:52:39;;;;;;;;;5.50;5.50;;;;;8.17;85.45;98720.75;5094996;27;45666;-66
2023/03/08 06:55:05;;;;;;;;;4.75;4.25;;;;;8.15;85.42;98717.31;5094259;27;45494;-66
2023/03/08 06:57:31;;;;;;;;;5.00;5.00;;;;;8.30;85.55;98729.19;5094554;27;45826;-67
2023/03/08 06:59:57;;;;;;;;;6.00;4.00;;;;;8.37;85.95;98724.69;5091519;27;45577;-66
2023/03/08 07:02:23;;;;;;;;;5.75;4.00;;;;;8.47;85.78;98726.25;5092417;27;45462;-67
2023/03/08 07:04:48;;;;;;;;;3.50;3.50;;;;;8.54;86.80;98729.59;5089492;27;45772;-67
2023/03/08 07:07:14;;;;;;;;;4.00;4.00;;;;;8.62;86.38;98732.91;5081787;27;45365;-66
2023/03/08 07:09:39;;;;;;;;;6.50;4.00;;;;;8.65;86.65;98720.63;5094123;27;45659;-68
2023/03/08 07:12:05;;;;;;;;;5.25;3.00;;;;;8.67;86.26;98729.28;5093280;27;45537;-66
2023/03/08 07:14:30;;;;;;;;;4.00;3.25;;;;;8.85;86.02;98740.19;5086022;27;45488;-67
2023/03/08 07:16:56;;;;;;;;;2.00;2.00;;;;;8.83;86.60;98729.81;5090575;27;45767;-67
2023/03/08 07:19:22;;;;;;;;;1.75;1.75;;;;;8.98;86.18;98743.41;5090893;27;47182;-68
2023/03/08 07:21:47;;;;;;;;;1.00;1.00;;;;;8.95;86.06;98731.28;5091530;27;45581;-67
2023/03/08 07:24:14;;;;;;;;;3.25;2.50;;;;;9.03;86.29;98724.09;5091042;27;45758;-68
2023/03/08 07:26:39;;;;;;;;;1.75;1.75;;;;;9.06;86.89;98710.09;5075583;27;45591;-68
2023/03/08 07:29:05;;;;;;;;;3.25;1.50;;;;;9.15;85.80;98725.56;5072493;27;46268;-67
2023/03/08 07:31:34;;;;;;;;;1.50;1.50;;;;;9.32;85.89;98733.88;5079672;27;45379;-67
2023/03/08 07:34:01;;;;;;;;;1.75;1.00;;;;;9.39;86.27;98734.53;5081931;27;45384;-67
2023/03/08 07:36:32;;;;;;;;;2.50;2.50;;;;;9.37;86.14;98717.19;5095203;27;45424;-69
2023/03/08 07:38:58;;;;;;;;;1.75;1.75;;;;;9.50;86.87;98729.06;5088824;27;47502;-67
2023/03/08 07:41:29;;;;;;;;;2.25;2.25;;;;;9.46;87.31;98722.19;5085866;27;45559;-68
2023/03/08 07:43:57;;;;;;;;;2.25;1.25;;;;;9.60;87.13;98754.03;5081982;27;45921;-67
2023/03/08 07:46:28;;;;;;;;;5.50;2.00;;;;;9.68;86.98;98736.44;5080956;27;45647;-66
2023/03/08 07:48:55;;;;;;;;;1.50;1.50;;;;;9.79;86.23;98733.50;5085716;27;45563;-66
2023/03/08 07:51:21;;;;;;;;;2.00;1.50;;;;;9.91;85.63;98738.41;5081062;27;45497;-67
2023/03/08 07:53:47;;;;;;;;;1.00;1.00;;;;;10.00;85.84;98726.84;5085785;27;45505;-67
2023/03/08 07:56:12;;;;;;;;;1.75;1.75;;;;;9.98;84.78;98723.41;5088660;27;45935;-67
2023/03/08 07:58:41;;;;;;;;;1.25;1.25;;;;;10.03;85.36;98700.59;5089587;27;46103;-70
2023/03/08 08:01:08;;;;;;;;;2.50;2.00;;;;;10.25;84.61;98727.03;5086783;27;45559;-68
2023/03/08 08:03:36;;;;;;;;;3.50;1.00;;;;;10.16;85.38;98688.03;5089157;27;45385;-66
2023/03/08 08:06:02;;;;;;;;;2.25;2.00;;;;;10.53;84.90;98739.31;5092264;27;45535;-67
2023/03/08 08:08:28;;;;;;;;;0.50;0.50;;;;;10.72;84.74;98752.72;5095771;27;45519;-67
2023/03/08 08:10:54;;;;;;;;;1.50;0.75;;;;;10.96;83.45;98741.50;5096711;27;45711;-66
2023/03/08 08:13:19;;;;;;;;;2.00;2.00;;;;;11.17;83.02;98749.56;5090725;27;45743;-67
2023/03/08 08:15:45;;;;;;;;;1.00;1.00;;;;;11.31;82.34;98749.13;5075709;27;45526;-67
2023/03/08 08:18:11;;;;;;;;;1.25;1.25;;;;;11.35;81.83;98763.84;5082470;27;45526;-69
2023/03/08 08:20:36;;;;;;;;;1.00;1.00;;;;;11.33;81.90;98758.63;5087664;27;45518;-70
2023/03/08 08:23:05;;;;;;;;;1.00;1.00;;;;;11.30;81.96;98755.28;5078774;27;45911;-69
2023/03/08 08:25:31;;;;;;;;;2.00;2.00;;;;;11.28;81.58;98752.69;5084711;27;45500;-67
2023/03/08 08:27:57;;;;;;;;;2.00;2.00;;;;;11.33;81.44;98758.63;5082108;27;46673;-68
2023/03/08 08:30:24;;;;;;;;;1.25;1.25;;;;;11.31;81.88;98749.97;5072789;27;45671;-66
2023/03/08 08:32:50;;;;;;;;;2.50;0.50;;;;;11.34;82.37;98747.28;5086561;27;45461;-66
2023/03/08 08:35:16;;;;;;;;;1.00;1.00;;;;;11.30;81.80;98748.28;5091844;27;45360;-67
2023/03/08 08:37:42;;;;;;;;;1.50;1.50;;;;;11.35;82.51;98764.69;5076899;27;47277;-68
2023/03/08 08:40:10;;;;;;;;;1.00;1.00;;;;;11.28;82.24;98747.44;5080354;27;45763;-69
2023/03/08 08:42:36;;;;;;;;;1.50;1.50;;;;;11.39;81.97;98762.81;5079509;27;45479;-69
2023/03/08 08:45:01;;;;;;;;;1.50;1.25;;;;;11.39;81.98;98742.72;5080591;27;45430;-66
2023/03/08 08:47:29;;;;;;;;;1.00;1.00;;;;;11.51;81.95;98769.41;5092708;27;45574;-67
2023/03/08 08:49:57;;;;;;;;;0.00;0.00;;;;;11.35;82.23;98743.72;5094324;27;45491;-68
2023/03/08 08:52:22;;;;;;;;;2.00;1.00;;;;;11.55;81.97;98771.03;5093950;27;45373;-67
2023/03/08 08:54:48;;;;;;;;;1.00;1.00;;;;;11.64;81.92;98765.50;5093830;27;45743;-67
2023/03/08 08:57:13;;;;;;;;;2.00;1.00;;;;;11.70;81.74;98753.91;5095006;27;46266;-68
2023/03/08 08:59:39;;;;;;;;;2.75;0.25;;;;;11.77;81.97;98769.41;5090590;27;45463;-69
2023/03/08 09:02:05;;;;;;;;;3.00;0.00;;;;;11.68;81.81;98759.25;5090853;27;45343;-68
2023/03/08 09:04:31;;;;;;;;;1.00;1.00;;;;;11.69;82.73;98768.81;5089079;27;45477;-67
2023/03/08 09:06:57;;;;;;;;;1.00;1.00;;;;;11.66;82.38;98764.53;5090419;27;45752;-66
2023/03/08 09:09:23;;;;;;;;;1.00;1.00;;;;;11.69;82.85;98758.31;5085755;27;45477;-67
2023/03/08 09:11:48;;;;;;;;;2.00;1.00;;;;;11.70;83.18;98765.28;5088194;27;45555;-68
2023/03/08 09:14:14;;;;;;;;;1.67;0.00;;;;;11.79;82.37;98756.22;5074282;27;45504;-66
2023/03/08 09:16:39;;;;;;;;;0.00;0.00;;;;;11.86;82.47;98755.09;5075031;27;46107;-68
2023/03/08 09:19:06;;;;;;;;;1.00;1.00;;;;;12.04;82.20;98758.91;5078171;27;45625;-68
2023/03/08 09:21:36;;;;;;;;;2.33;1.00;;;;;12.06;81.70;98754.47;5094078;27;45494;-67
2023/03/08 09:24:04;;;;;;;;;2.00;1.00;;;;;12.27;81.16;98777.31;5086227;27;45510;-67
2023/03/08 09:26:31;;;;;;;;;1.00;1.00;;;;;12.40;81.03;98772.44;5088981;27;47719;-68
2023/03/08 09:29:03;;;;;;;;;1.00;1.00;;;;;12.47;80.53;98773.09;5076430;27;45628;-66
2023/03/08 09:31:29;;;;;;;;;1.00;1.00;;;;;12.48;80.18;98772.16;5079121;27;45727;-67
2023/03/08 09:33:56;;;;;;;;;3.00;1.00;;;;;12.48;80.48;98775.66;5084557;27;45507;-66
2023/03/08 09:36:21;;;;;;;;;1.00;1.00;;;;;12.46;80.45;98769.63;5075874;27;47580;-67
2023/03/08 09:38:49;;;;;;;;;2.67;2.00;;;;;12.56;79.62;98792.91;5078353;27;45719;-66
2023/03/08 09:41:44;;;;;;;;;1.00;1.00;;;;;12.56;80.29;98793.75;5078738;27;45865;-67
2023/03/08 09:44:17;;;;;;;;;2.00;1.00;;;;;12.64;80.18;98783.81;5075595;27;45963;-67
2023/03/08 09:46:59;;;;;;;;;1.00;1.00;;;;;12.80;80.08;98784.09;5074514;27;45800;-67
2023/03/08 09:49:29;;;;;;;;;1.00;1.00;;;;;12.97;79.29;98787.84;5077517;27;45481;-67
2023/03/08 09:52:14;;;;;;;;;2.00;1.00;;;;;12.91;78.19;98768.78;5079216;27;45339;-68
2023/03/08 09:54:40;;;;;;;;;2.00;1.00;;;;;13.15;78.36;98790.59;5079669;27;45490;-68
2023/03/08 09:57:15;;;;;;;;;2.00;0.33;;;;;13.28;77.80;98791.00;5108344;27;46567;-67
2023/03/08 09:59:50;;;;;;;;;3.00;1.00;;;;;13.32;77.18;98795.22;5074917;27;45805;-67
2023/03/08 10:02:22;;;;;;;;;2.00;1.67;;;;;13.43;77.21;98797.44;5078979;27;45491;-67
2023/03/08 10:05:00;;;;;;;;;1.67;1.00;;;;;13.57;76.34;98797.72;5076456;27;45452;-67
2023/03/08 10:07:31;;;;;;;;;1.33;1.33;;;;;13.86;75.34;98800.91;5074203;27;46478;-67
2023/03/08 10:10:21;;;;;;;;;4.00;1.00;;;;;14.23;74.19;98807.22;5076761;27;45513;-67
2023/03/08 10:12:59;;;;;;;;;1.00;1.00;;;;;14.32;73.52;98798.91;5077516;27;45552;-67
2023/03/08 10:15:27;;;;;;;;;1.00;1.00;;;;;14.21;73.40;98786.25;5077394;27;45345;-67
2023/03/08 10:18:09;;;;;;;;;1.33;0.00;;;;;14.41;73.08;98816.09;5074850;27;45513;-67
2023/03/08 10:20:37;;;;;;;;;2.00;2.00;;;;;14.40;73.14;98815.25;5078067;27;45653;-67
2023/03/08 10:23:13;;;;;;;;;3.00;1.00;;;;;14.30;73.42;98802.53;5078597;27;45779;-67
2023/03/08 10:25:39;;;;;;;;;0.33;0.33;;;;;14.33;73.51;98815.56;5072787;27;45462;-67
2023/03/08 10:28:12;;;;;;;;;2.00;1.00;;;;;14.32;73.99;98806.81;5074678;27;46729;-65
2023/03/08 10:30:46;;;;;;;;;1.00;1.00;;;;;14.32;74.61;98806.81;5086875;27;45377;-67
2023/03/08 10:33:14;;;;;;;;;1.00;1.00;;;;;14.30;73.75;98802.53;5090217;27;45428;-65
2023/03/08 10:36:03;;;;;;;;;3.00;1.33;;;;;14.20;73.28;98800.31;5081868;27;45443;-67
2023/03/08 10:38:31;;;;;;;;;0.00;0.00;;;;;14.15;73.72;98817.25;5085363;27;46222;-67
2023/03/08 10:41:15;;;;;;;;;3.00;1.33;;;;;13.99;73.48;98812.63;5094341;27;45360;-67
2023/03/08 10:43:48;;;;;;;;;1.00;1.00;;;;;13.92;74.08;98818.22;5095507;27;45317;-66
2023/03/08 10:46:21;;;;;;;;;0.00;0.00;;;;;13.88;74.64;98825.41;5095965;27;45305;-67
2023/03/08 10:48:47;;;;;;;;;2.00;1.00;;;;;13.86;74.71;98832.50;5094240;27;45606;-65
2023/03/08 10:51:24;;;;;;;;;1.00;1.00;;;;;13.98;74.68;98836.38;5094493;27;45622;-67
2023/03/08 10:53:58;;;;;;;;;0.00;0.00;;;;;13.96;75.23;98823.28;5094435;27;45580;-66
2023/03/08 10:56:43;;;;;;;;;3.00;1.00;;;;;13.88;75.10;98835.91;5111278;27;45305;-68
2023/03/08 10:59:31;;;;;;;;;1.00;1.00;;;;;13.76;75.33;98825.88;5094668;27;46995;-68
2023/03/08 11:02:23;;;;;;;;;1.33;1.33;;;;;13.82;75.15;98841.44;5082184;27;45509;-68
2023/03/08 11:04:56;;;;;;;;;1.00;1.00;;;;;13.97;75.12;98834.66;5092739;27;45483;-67
2023/03/08 11:07:27;;;;;;;;;0.33;0.33;;;;;13.97;74.89;98824.13;5094537;27;45465;-67
2023/03/08 11:10:17;;;;;;;;;1.00;1.00;;;;;14.26;73.87;98822.03;5093568;27;45516;-67
2023/03/08 11:12:44;;;;;;;;;1.00;1.00;;;;;14.42;73.62;98834.44;5091821;27;45815;-68
2023/03/08 11:15:18;;;;;;;;;1.33;1.33;;;;;14.51;73.41;98834.97;5093548;27;45359;-68
2023/03/08 11:17:55;;;;;;;;;2.00;2.00;;;;;14.49;73.14;98823.66;5092639;27;45404;-67
2023/03/08 11:20:35;;;;;;;;;1.00;1.00;;;;;14.50;73.43;98827.97;5092340;27;47760;-67
2023/03/08 11:23:08;;;;;;;;;4.00;2.00;;;;;14.77;73.35;98833.84;5093000;27;45420;-65
2023/03/08 11:25:50;;;;;;;;;2.00;1.00;;;;;15.24;71.51;98825.50;5081518;27;45486;-66
2023/03/08 11:28:24;;;;;;;;;4.00;1.00;;;;;15.13;71.03;98826.00;5095768;27;45538;-66
2023/03/08 11:31:02;;;;;;;;;2.00;2.00;;;;;14.89;71.32;98822.72;5093011;27;46093;-65
2023/03/08 11:34:00;;;;;;;;;1.00;1.00;;;;;14.75;71.69;98830.41;5087078;27;45723;-66
2023/03/08 11:36:28;;;;;;;;;1.00;1.00;;;;;14.69;72.37;98836.84;5090733;27;45379;-66
2023/03/08 11:39:23;;;;;;;;;1.00;1.00;;;;;14.75;72.97;98828.63;5096866;27;45380;-65